Time;durP1;ratioP1;P1;durP2;ratioP2;P2;SDS_P1;SDS_P2;PMS_P1;PMS_P2;Temp;Humidity;BMP_temperature;BMP_pressure;BME280_temperature;BME280_humidity;BME280_pressure;Samples;Min_cycle;Max_cycle;Signal;HPM_P1;HPM_P2
2021/05/16 00:01:00;;;;;;;0.20;0.20;;;16.50;78.50;;;;;;4194229;28;20414;-45
2021/05/16 00:03:23;;;;;;;0.80;0.80;;;16.50;78.60;;;;;;4191972;28;20072;-52
2021/05/16 00:05:46;;;;;;;0.30;0.30;;;16.50;78.70;;;;;;4191820;28;20147;-49
2021/05/16 00:08:08;;;;;;;0.00;0.00;;;16.50;78.70;;;;;;4191826;28;20055;-48
2021/05/16 00:10:30;;;;;;;0.40;0.40;;;16.50;78.70;;;;;;4184269;28;20040;-51
2021/05/16 00:12:52;;;;;;;0.00;0.00;;;16.50;78.80;;;;;;4194624;28;20045;-51
2021/05/16 00:15:16;;;;;;;0.00;0.00;;;16.50;78.70;;;;;;4208262;28;20144;-48
2021/05/16 00:17:38;;;;;;;0.17;0.17;;;16.40;78.80;;;;;;4208245;28;20048;-52
2021/05/16 00:20:02;;;;;;;0.20;0.20;;;16.40;78.70;;;;;;4204409;28;20052;-55
2021/05/16 00:22:23;;;;;;;0.43;0.43;;;16.40;78.80;;;;;;4191444;28;20075;-50
2021/05/16 00:25:12;;;;;;;0.00;0.00;;;16.40;78.80;;;;;;4191195;28;20055;-50
2021/05/16 00:27:59;;;;;;;0.00;0.00;;;16.40;78.90;;;;;;4181291;28;20490;-46
2021/05/16 00:30:40;;;;;;;0.00;0.00;;;16.40;79.00;;;;;;4191493;28;20055;-48
2021/05/16 00:33:02;;;;;;;1.63;0.30;;;16.40;78.90;;;;;;4196279;28;20426;-45
2021/05/16 00:35:28;;;;;;;0.20;0.20;;;16.40;79.10;;;;;;4191421;28;20491;-49
2021/05/16 00:37:50;;;;;;;0.38;0.38;;;16.40;79.00;;;;;;4174643;28;20064;-49
2021/05/16 00:40:13;;;;;;;0.35;0.35;;;16.40;79.10;;;;;;4175092;28;20063;-51
2021/05/16 00:42:35;;;;;;;0.00;0.00;;;16.40;79.10;;;;;;4174823;28;20055;-46
2021/05/16 00:44:58;;;;;;;0.10;0.10;;;16.40;79.10;;;;;;4191045;28;20052;-47
2021/05/16 00:47:20;;;;;;;0.20;0.20;;;16.40;79.10;;;;;;4192774;28;20507;-49
2021/05/16 00:49:41;;;;;;;;;;;16.40;79.10;;;;;;4206704;28;20048;-52
2021/05/16 00:52:04;;;;;;;0.32;0.32;;;16.40;79.20;;;;;;4190941;28;20015;-46
2021/05/16 00:54:26;;;;;;;0.20;0.20;;;16.40;79.20;;;;;;4189852;28;20044;-50
2021/05/16 00:56:47;;;;;;;;;;;16.40;79.30;;;;;;4191705;28;20060;-49
2021/05/16 00:59:09;;;;;;;0.10;0.10;;;16.40;79.30;;;;;;4191208;28;19932;-46
2021/05/16 01:01:30;;;;;;;0.00;0.00;;;16.40;79.30;;;;;;4190049;28;20052;-49
2021/05/16 01:03:53;;;;;;;3.10;1.08;;;16.40;79.30;;;;;;4190997;28;20067;-50
2021/05/16 01:06:15;;;;;;;0.10;0.10;;;16.40;79.40;;;;;;4192264;28;20101;-50
2021/05/16 01:08:37;;;;;;;0.30;0.30;;;16.30;79.30;;;;;;4205623;28;20044;-48
2021/05/16 01:11:00;;;;;;;0.00;0.00;;;16.40;79.50;;;;;;4195300;28;20048;-49
2021/05/16 01:13:24;;;;;;;0.00;0.00;;;16.30;79.40;;;;;;4194617;28;20425;-47
2021/05/16 01:15:47;;;;;;;0.17;0.17;;;16.30;79.40;;;;;;4177991;28;20412;-52
2021/05/16 01:18:09;;;;;;;0.00;0.00;;;16.40;79.50;;;;;;4176551;28;20123;-53
2021/05/16 01:20:34;;;;;;;0.52;0.52;;;16.40;79.60;;;;;;4178219;28;20515;-49
2021/05/16 01:22:59;;;;;;;0.10;0.10;;;16.40;80.00;;;;;;4194236;28;20132;-48
2021/05/16 01:25:21;;;;;;;0.03;0.03;;;16.30;80.00;;;;;;4200638;28;20043;-50
2021/05/16 01:27:46;;;;;;;0.00;0.00;;;16.30;79.70;;;;;;4211065;28;20121;-49
2021/05/16 01:30:09;;;;;;;0.10;0.10;;;16.30;79.80;;;;;;4195619;28;20057;-46
2021/05/16 01:32:33;;;;;;;0.00;0.00;;;16.30;79.80;;;;;;4195749;28;20074;-47
2021/05/16 01:35:22;;;;;;;0.68;0.68;;;16.30;79.80;;;;;;4193583;28;20056;-45
2021/05/16 01:37:46;;;;;;;5.18;2.10;;;16.30;79.90;;;;;;4191318;28;20056;-47
2021/05/16 01:40:11;;;;;;;0.10;0.10;;;16.30;79.90;;;;;;4183889;28;20064;-47
2021/05/16 01:42:32;;;;;;;0.00;0.00;;;16.30;79.90;;;;;;4193982;28;20052;-46
2021/05/16 01:44:57;;;;;;;0.00;0.00;;;16.30;79.90;;;;;;4187419;28;20055;-47
2021/05/16 01:47:18;;;;;;;0.10;0.10;;;16.30;80.00;;;;;;4177411;28;20869;-48
2021/05/16 01:49:44;;;;;;;0.45;0.45;;;16.30;80.00;;;;;;4177593;28;20141;-46
2021/05/16 01:52:06;;;;;;;0.20;0.20;;;16.30;81.00;;;;;;4193724;28;20059;-47
2021/05/16 01:54:28;;;;;;;0.10;0.10;;;16.30;80.20;;;;;;4192693;28;20048;-47
2021/05/16 01:56:51;;;;;;;0.00;0.00;;;16.30;80.30;;;;;;4205799;28;20135;-48
2021/05/16 01:59:12;;;;;;;0.00;0.00;;;16.30;80.20;;;;;;4210235;28;20483;-47
2021/05/16 02:01:35;;;;;;;0.10;0.10;;;16.30;80.30;;;;;;4204679;28;20054;-50
2021/05/16 02:04:00;;;;;;;0.17;0.17;;;16.30;81.10;;;;;;4192726;28;20534;-50
2021/05/16 02:06:22;;;;;;;0.00;0.00;;;16.30;80.30;;;;;;4192206;28;20079;-48
2021/05/16 02:08:45;;;;;;;0.22;0.22;;;16.30;80.30;;;;;;4193626;28;20040;-47
2021/05/16 02:11:15;;;;;;;;;;;16.30;80.30;;;;;;4192561;28;20053;-49
2021/05/16 02:13:44;;;;;;;0.00;0.00;;;16.30;80.40;;;;;;4192057;28;20011;-51
2021/05/16 02:16:09;;;;;;;0.10;0.10;;;16.30;80.40;;;;;;4203931;28;20093;-47
2021/05/16 02:18:32;;;;;;;0.00;0.00;;;16.30;80.50;;;;;;4209268;28;20521;-49
2021/05/16 02:20:55;;;;;;;0.32;0.32;;;16.20;80.40;;;;;;4202687;28;20056;-47
2021/05/16 02:23:17;;;;;;;0.10;0.10;;;16.20;80.50;;;;;;4191907;28;20056;-50
2021/05/16 02:25:40;;;;;;;0.00;0.00;;;16.20;80.50;;;;;;4191884;28;20454;-51
2021/05/16 02:28:09;;;;;;;0.10;0.10;;;16.20;80.60;;;;;;4191265;28;20093;-47
2021/05/16 02:30:31;;;;;;;0.00;0.00;;;16.20;80.60;;;;;;4193227;28;20072;-48
2021/05/16 02:32:53;;;;;;;0.00;0.00;;;16.20;80.70;;;;;;4191726;28;20041;-50
2021/05/16 02:35:14;;;;;;;0.20;0.20;;;16.20;80.60;;;;;;4194037;28;20057;-46
2021/05/16 02:37:43;;;;;;;0.00;0.00;;;16.20;80.70;;;;;;4193284;28;20437;-46
2021/05/16 02:40:06;;;;;;;0.00;0.00;;;16.20;80.80;;;;;;4176657;28;20119;-47
2021/05/16 02:42:28;;;;;;;0.00;0.00;;;16.20;80.80;;;;;;4176801;28;20033;-49
2021/05/16 02:44:50;;;;;;;0.20;0.20;;;16.20;80.90;;;;;;4175358;28;20599;-47
2021/05/16 02:47:12;;;;;;;0.00;0.00;;;16.20;80.90;;;;;;4176683;28;20091;-49
2021/05/16 02:49:34;;;;;;;3.03;2.03;;;16.20;80.90;;;;;;4176234;28;20041;-48
2021/05/16 02:51:55;;;;;;;0.45;0.45;;;16.20;80.90;;;;;;4192888;28;20052;-50
2021/05/16 02:54:17;;;;;;;0.00;0.00;;;16.20;81.80;;;;;;4193147;28;20453;-47
2021/05/16 02:56:39;;;;;;;0.00;0.00;;;16.20;80.90;;;;;;4192011;28;20110;-47
2021/05/16 02:59:01;;;;;;;0.57;0.57;;;16.20;80.90;;;;;;4191435;28;20047;-46
2021/05/16 03:01:23;;;;;;;0.10;0.10;;;16.20;80.90;;;;;;4191490;28;20122;-50
2021/05/16 03:03:47;;;;;;;0.00;0.00;;;16.20;80.90;;;;;;4192741;28;20068;-47
2021/05/16 03:06:09;;;;;;;0.15;0.15;;;16.20;81.00;;;;;;4190724;28;20041;-49
2021/05/16 03:08:31;;;;;;;0.00;0.00;;;16.20;80.90;;;;;;4192824;28;20565;-47
2021/05/16 03:10:53;;;;;;;0.03;0.03;;;16.20;81.10;;;;;;4190837;28;20036;-46
2021/05/16 03:13:15;;;;;;;0.13;0.13;;;16.20;80.90;;;;;;4191313;28;20051;-45
2021/05/16 03:15:36;;;;;;;0.10;0.10;;;16.20;81.00;;;;;;4199196;28;20468;-48
2021/05/16 03:17:58;;;;;;;0.00;0.00;;;16.20;81.10;;;;;;4191484;28;20086;-46
2021/05/16 03:20:22;;;;;;;0.70;0.70;;;16.20;82.00;;;;;;4191246;28;20052;-46
2021/05/16 03:22:44;;;;;;;0.00;0.00;;;16.20;81.20;;;;;;4191022;28;20071;-48
2021/05/16 03:25:07;;;;;;;0.10;0.10;;;16.20;81.20;;;;;;4190777;28;20055;-51
2021/05/16 03:27:28;;;;;;;0.10;0.10;;;16.20;81.20;;;;;;4192793;28;20056;-46
2021/05/16 03:29:50;;;;;;;;;;;16.10;81.20;;;;;;4192526;28;20059;-46
2021/05/16 03:32:12;;;;;;;0.00;0.00;;;16.10;81.20;;;;;;4192049;28;20185;-52
2021/05/16 03:34:35;;;;;;;;;;;16.10;81.20;;;;;;4190512;28;20044;-52
2021/05/16 03:36:57;;;;;;;0.00;0.00;;;16.10;81.40;;;;;;4196844;28;19955;-48
2021/05/16 03:39:19;;;;;;;1.13;0.52;;;16.10;81.30;;;;;;4208526;28;20055;-45
2021/05/16 03:41:41;;;;;;;0.32;0.32;;;16.10;81.50;;;;;;4199649;28;20410;-48
2021/05/16 03:44:03;;;;;;;0.57;0.57;;;16.10;81.70;;;;;;4192165;28;20049;-46
2021/05/16 03:46:24;;;;;;;0.00;0.00;;;16.10;81.60;;;;;;4191837;28;20053;-46
2021/05/16 03:48:45;;;;;;;;;;;16.10;81.40;;;;;;4192312;28;20125;-46
2021/05/16 03:51:07;;;;;;;0.00;0.00;;;16.10;81.50;;;;;;4203233;28;19965;-47
2021/05/16 03:53:30;;;;;;;0.05;0.05;;;16.10;81.40;;;;;;4208731;28;20651;-47
2021/05/16 03:55:51;;;;;;;0.03;0.03;;;16.10;81.40;;;;;;4205823;28;20044;-47
2021/05/16 03:58:13;;;;;;;;;;;16.10;81.40;;;;;;4208730;28;20540;-45
2021/05/16 04:00:34;;;;;;;0.00;0.00;;;16.10;81.50;;;;;;4201387;28;19985;-50
2021/05/16 04:02:55;;;;;;;0.10;0.10;;;16.10;81.40;;;;;;4191580;28;20115;-46
2021/05/16 04:05:17;;;;;;;0.43;0.13;;;16.10;81.40;;;;;;4191909;28;20421;-46
2021/05/16 04:07:38;;;;;;;0.35;0.35;;;16.10;81.40;;;;;;4192200;28;20049;-46
2021/05/16 04:10:01;;;;;;;0.10;0.10;;;16.10;81.50;;;;;;4202576;28;20077;-46
2021/05/16 04:12:22;;;;;;;0.00;0.00;;;16.10;81.40;;;;;;4206606;28;20047;-45
2021/05/16 04:14:45;;;;;;;0.00;0.00;;;16.10;81.40;;;;;;4191377;28;20056;-46
2021/05/16 04:17:06;;;;;;;0.00;0.00;;;16.10;81.40;;;;;;4191542;28;20174;-50
2021/05/16 04:19:29;;;;;;;0.00;0.00;;;16.10;81.40;;;;;;4197894;28;20068;-48
2021/05/16 04:21:51;;;;;;;0.00;0.00;;;16.10;81.40;;;;;;4208203;28;20044;-55
2021/05/16 04:24:14;;;;;;;0.10;0.05;;;16.10;81.40;;;;;;4207198;28;20101;-46
2021/05/16 04:26:36;;;;;;;0.00;0.00;;;16.10;81.40;;;;;;4207955;28;20502;-46
2021/05/16 04:28:58;;;;;;;0.20;0.20;;;16.10;81.50;;;;;;4203144;28;20503;-47
2021/05/16 04:31:19;;;;;;;0.35;0.35;;;16.10;81.40;;;;;;4191986;28;20649;-48
2021/05/16 04:33:40;;;;;;;;;;;16.10;81.40;;;;;;4191917;28;20052;-51
2021/05/16 04:36:02;;;;;;;0.05;0.05;;;16.10;81.50;;;;;;4191602;28;19932;-46
2021/05/16 04:38:24;;;;;;;0.08;0.08;;;16.10;81.50;;;;;;4191349;28;20113;-48
2021/05/16 04:40:46;;;;;;;1.35;1.10;;;16.10;81.50;;;;;;4191421;28;21609;-45
2021/05/16 04:43:09;;;;;;;0.80;0.80;;;16.10;81.50;;;;;;4196057;28;20641;-50
2021/05/16 04:45:30;;;;;;;0.00;0.00;;;16.10;81.50;;;;;;4207629;28;20054;-50
2021/05/16 04:47:52;;;;;;;0.00;0.00;;;16.10;81.60;;;;;;4207937;28;20046;-52
2021/05/16 04:50:15;;;;;;;0.00;0.00;;;16.10;81.60;;;;;;4207681;28;20479;-49
2021/05/16 04:52:37;;;;;;;0.65;0.65;;;16.10;81.50;;;;;;4191128;28;20044;-48
2021/05/16 04:54:58;;;;;;;0.63;0.63;;;16.10;82.40;;;;;;4191229;28;20472;-46
2021/05/16 04:57:20;;;;;;;1.20;1.10;;;16.10;81.50;;;;;;4191078;28;20567;-49
2021/05/16 04:59:46;;;;;;;0.00;0.00;;;16.10;82.40;;;;;;4191290;28;20055;-49
2021/05/16 05:02:07;;;;;;;0.10;0.10;;;16.10;81.50;;;;;;4175561;28;20055;-47
2021/05/16 05:04:29;;;;;;;1.13;0.43;;;16.10;81.60;;;;;;4186460;28;20120;-46
2021/05/16 05:06:51;;;;;;;0.30;0.30;;;16.10;81.60;;;;;;4190997;28;20049;-47
2021/05/16 05:09:12;;;;;;;0.85;0.85;;;16.10;81.60;;;;;;4190854;28;20049;-50
2021/05/16 05:11:34;;;;;;;0.00;0.00;;;16.10;81.60;;;;;;4190995;28;20564;-49
2021/05/16 05:13:56;;;;;;;0.00;0.00;;;16.10;81.60;;;;;;4192235;28;20415;-47
2021/05/16 05:16:18;;;;;;;0.00;0.00;;;16.10;81.60;;;;;;4190583;28;20407;-47
2021/05/16 05:18:40;;;;;;;0.00;0.00;;;16.10;81.60;;;;;;4191072;28;20056;-50
2021/05/16 05:21:02;;;;;;;0.10;0.10;;;16.10;81.60;;;;;;4189633;28;20049;-48
2021/05/16 05:23:23;;;;;;;0.20;0.20;;;16.10;81.70;;;;;;4189731;28;20049;-50
2021/05/16 05:25:45;;;;;;;0.10;0.10;;;16.10;81.70;;;;;;4174489;28;20068;-49
2021/05/16 05:28:06;;;;;;;0.00;0.00;;;16.10;81.80;;;;;;4173906;28;20067;-46
2021/05/16 05:30:28;;;;;;;0.00;0.00;;;16.10;81.80;;;;;;4190687;28;20049;-47
2021/05/16 05:32:50;;;;;;;0.00;0.00;;;16.10;81.80;;;;;;4190927;28;20058;-47
2021/05/16 05:35:12;;;;;;;0.00;0.00;;;16.10;82.10;;;;;;4178366;28;20055;-47
2021/05/16 05:37:33;;;;;;;0.10;0.10;;;16.10;82.90;;;;;;4174040;28;20099;-46
2021/05/16 05:39:55;;;;;;;0.00;0.00;;;16.20;82.80;;;;;;4174556;28;20499;-45
2021/05/16 05:42:16;;;;;;;;;;;16.20;82.50;;;;;;4196773;28;20040;-49
2021/05/16 05:44:40;;;;;;;0.00;0.00;;;16.20;82.90;;;;;;4207533;28;19973;-45
2021/05/16 05:47:01;;;;;;;0.38;0.38;;;16.20;83.10;;;;;;4194690;28;20053;-46
2021/05/16 05:49:24;;;;;;;0.00;0.00;;;16.20;83.20;;;;;;4191860;28;20759;-45
2021/05/16 05:51:45;;;;;;;0.10;0.10;;;16.20;83.30;;;;;;4184642;28;20425;-51
2021/05/16 05:54:07;;;;;;;0.70;0.63;;;16.20;83.40;;;;;;4196933;28;20052;-51
2021/05/16 05:56:28;;;;;;;;;;;16.20;83.40;;;;;;4208086;28;20434;-58
2021/05/16 05:58:50;;;;;;;;;;;16.20;83.90;;;;;;4210981;28;19963;-48
2021/05/16 06:01:11;;;;;;;0.80;0.52;;;16.20;82.90;;;;;;4210731;28;19975;-47
2021/05/16 06:03:58;;;;;;;0.70;0.70;;;16.20;82.80;;;;;;4205876;28;20555;-48
2021/05/16 06:06:20;;;;;;;0.35;0.35;;;16.20;82.80;;;;;;4202030;28;20113;-47
2021/05/16 06:08:42;;;;;;;0.38;0.38;;;16.20;82.80;;;;;;4210121;28;20051;-46
2021/05/16 06:11:04;;;;;;;0.20;0.20;;;16.20;82.80;;;;;;4210381;28;20118;-49
2021/05/16 06:13:26;;;;;;;0.50;0.50;;;16.10;82.60;;;;;;4210373;28;20055;-46
2021/05/16 06:15:47;;;;;;;0.32;0.32;;;16.20;82.70;;;;;;4204381;28;20105;-52
2021/05/16 06:18:09;;;;;;;0.00;0.00;;;16.10;82.70;;;;;;4193407;28;20051;-48
2021/05/16 06:20:30;;;;;;;1.27;1.17;;;16.20;82.80;;;;;;4193679;28;20048;-49
2021/05/16 06:22:53;;;;;;;0.10;0.10;;;16.10;82.70;;;;;;4192192;28;20048;-47
2021/05/16 06:25:16;;;;;;;0.80;0.80;;;16.10;82.90;;;;;;4193909;28;20143;-46
2021/05/16 06:27:37;;;;;;;1.95;0.38;;;16.10;82.80;;;;;;4196157;28;20047;-46
2021/05/16 06:29:59;;;;;;;0.55;0.55;;;16.10;82.80;;;;;;4193022;28;20045;-47
2021/05/16 06:32:22;;;;;;;0.17;0.17;;;16.20;89.10;;;;;;4191827;28;20049;-46
2021/05/16 06:34:43;;;;;;;0.15;0.15;;;16.20;91.10;;;;;;4195517;28;20055;-47
2021/05/16 06:37:06;;;;;;;1.85;1.17;;;16.20;91.70;;;;;;4195751;28;20048;-51
2021/05/16 06:39:28;;;;;;;0.65;0.65;;;16.20;91.60;;;;;;4191303;28;20048;-51
2021/05/16 06:41:49;;;;;;;0.00;0.00;;;16.30;91.40;;;;;;4192883;28;20052;-48
2021/05/16 06:44:11;;;;;;;;;;;16.30;91.10;;;;;;4193201;28;20048;-45
2021/05/16 06:46:32;;;;;;;0.00;0.00;;;16.30;90.50;;;;;;4181176;28;19920;-46
2021/05/16 06:48:54;;;;;;;0.00;0.00;;;16.30;90.00;;;;;;4176455;28;20056;-49
2021/05/16 06:51:15;;;;;;;0.30;0.30;;;16.30;89.10;;;;;;4176388;28;20076;-47
2021/05/16 06:53:38;;;;;;;1.15;1.15;;;16.30;88.30;;;;;;4181340;28;20453;-48
2021/05/16 06:56:01;;;;;;;0.03;0.03;;;16.30;87.80;;;;;;4178106;28;20068;-45
2021/05/16 06:58:22;;;;;;;0.80;0.40;;;16.30;87.40;;;;;;4185666;28;20111;-47
2021/05/16 07:00:45;;;;;;;0.00;0.00;;;16.30;87.10;;;;;;4191595;28;20048;-46
2021/05/16 07:03:07;;;;;;;2.63;1.65;;;16.30;86.50;;;;;;4192721;28;20091;-46
2021/05/16 07:05:29;;;;;;;0.32;0.32;;;16.30;86.10;;;;;;4184508;28;20466;-50
2021/05/16 07:07:50;;;;;;;;;;;16.30;85.80;;;;;;4191599;28;20540;-45
2021/05/16 07:10:12;;;;;;;3.00;1.58;;;16.20;85.40;;;;;;4196191;28;20022;-47
2021/05/16 07:12:34;;;;;;;0.90;0.85;;;16.30;85.30;;;;;;4181562;28;20575;-46
2021/05/16 07:14:56;;;;;;;1.27;0.85;;;16.30;85.10;;;;;;4208325;28;20044;-50
2021/05/16 07:17:17;;;;;;;0.55;0.40;;;16.30;84.90;;;;;;4195423;28;20133;-46
2021/05/16 07:19:38;;;;;;;0.00;0.00;;;16.30;84.60;;;;;;4199132;28;20562;-45
2021/05/16 07:22:00;;;;;;;0.68;0.68;;;16.30;84.40;;;;;;4192827;28;20048;-48
2021/05/16 07:24:22;;;;;;;0.15;0.15;;;16.30;84.10;;;;;;4190681;28;20568;-48
2021/05/16 07:26:44;;;;;;;19.48;0.75;;;16.30;84.00;;;;;;4192233;28;20127;-50
2021/05/16 07:29:07;;;;;;;0.47;0.47;;;16.30;83.80;;;;;;4190616;28;20139;-50
2021/05/16 07:31:28;;;;;;;0.20;0.20;;;16.30;83.70;;;;;;4192383;28;20582;-48
2021/05/16 07:33:50;;;;;;;0.40;0.40;;;16.30;83.50;;;;;;4187931;28;20135;-50
2021/05/16 07:36:12;;;;;;;0.35;0.35;;;16.30;83.40;;;;;;4188353;28;20045;-46
2021/05/16 07:38:34;;;;;;;0.20;0.20;;;16.30;83.20;;;;;;4192184;28;20048;-47
2021/05/16 07:40:56;;;;;;;0.47;0.47;;;16.40;83.10;;;;;;4192112;28;20041;-46
2021/05/16 07:43:18;;;;;;;0.50;0.50;;;16.30;83.00;;;;;;4193076;28;20118;-50
2021/05/16 07:45:40;;;;;;;1.80;0.77;;;16.40;83.00;;;;;;4175400;28;20059;-48
2021/05/16 07:48:02;;;;;;;0.10;0.10;;;16.40;82.70;;;;;;4174189;28;20048;-48
2021/05/16 07:50:23;;;;;;;2.20;0.70;;;16.40;82.60;;;;;;4174798;28;20048;-46
2021/05/16 07:52:45;;;;;;;1.15;1.15;;;16.40;82.50;;;;;;4190225;28;20112;-46
2021/05/16 07:55:08;;;;;;;1.20;0.85;;;16.40;82.40;;;;;;4192071;28;20048;-46
2021/05/16 07:57:29;;;;;;;0.17;0.17;;;16.40;82.30;;;;;;4195605;28;20045;-53
2021/05/16 07:59:51;;;;;;;0.15;0.15;;;16.40;82.20;;;;;;4204259;28;20091;-48
2021/05/16 08:02:14;;;;;;;0.40;0.40;;;16.40;82.10;;;;;;4208495;28;20545;-48
2021/05/16 08:04:36;;;;;;;0.40;0.40;;;16.50;82.00;;;;;;4191931;28;20135;-50
2021/05/16 08:06:59;;;;;;;0.20;0.20;;;16.50;81.90;;;;;;4191845;28;20829;-49
2021/05/16 08:09:21;;;;;;;0.00;0.00;;;16.50;81.70;;;;;;4191695;28;20589;-48
2021/05/16 08:11:42;;;;;;;;;;;16.50;81.50;;;;;;4192043;28;20059;-50
2021/05/16 08:14:04;;;;;;;0.10;0.10;;;16.50;81.10;;;;;;4191782;28;19925;-50
2021/05/16 08:16:27;;;;;;;0.00;0.00;;;16.50;81.10;;;;;;4191739;28;20089;-48
2021/05/16 08:18:52;;;;;;;0.77;0.77;;;16.50;80.90;;;;;;4187831;28;20135;-47
2021/05/16 08:21:14;;;;;;;0.38;0.38;;;16.50;80.80;;;;;;4184082;28;20056;-51
2021/05/16 08:23:35;;;;;;;0.38;0.38;;;16.50;80.70;;;;;;4176086;28;20127;-48
2021/05/16 08:25:57;;;;;;;1.15;1.15;;;16.50;80.60;;;;;;4195572;28;20048;-48
2021/05/16 08:28:19;;;;;;;0.28;0.28;;;16.50;80.50;;;;;;4191150;28;20059;-44
2021/05/16 08:30:41;;;;;;;1.95;1.83;;;16.50;80.40;;;;;;4188309;28;20133;-45
2021/05/16 08:33:02;;;;;;;0.35;0.35;;;16.50;80.20;;;;;;4196536;28;20536;-44
2021/05/16 08:35:25;;;;;;;1.05;1.05;;;16.50;80.10;;;;;;4179970;28;20408;-42
2021/05/16 08:37:46;;;;;;;0.10;0.10;;;16.40;80.30;;;;;;4194854;28;20093;-44
2021/05/16 08:40:08;;;;;;;;;;;16.40;80.20;;;;;;4198051;28;20131;-44
2021/05/16 08:42:31;;;;;;;0.95;0.57;;;16.40;80.20;;;;;;4197486;28;19931;-44
2021/05/16 08:44:52;;;;;;;0.88;0.88;;;16.40;80.50;;;;;;4207969;28;20127;-46
2021/05/16 08:47:15;;;;;;;0.10;0.10;;;16.40;80.70;;;;;;4206121;28;20139;-47
2021/05/16 08:49:36;;;;;;;1.13;1.08;;;16.40;80.80;;;;;;4189491;28;20068;-47
2021/05/16 08:51:59;;;;;;;0.32;0.32;;;16.40;81.00;;;;;;4185662;28;20049;-44
2021/05/16 08:54:23;;;;;;;0.80;0.80;;;16.30;81.00;;;;;;4186052;28;20063;-46
2021/05/16 08:56:48;;;;;;;0.60;0.60;;;16.40;81.10;;;;;;4176136;28;20048;-47
2021/05/16 08:59:10;;;;;;;0.05;0.05;;;16.40;81.20;;;;;;4190214;28;20090;-45
2021/05/16 09:01:35;;;;;;;0.00;0.00;;;16.40;81.30;;;;;;4194390;28;20052;-46
2021/05/16 09:04:17;;;;;;;1.85;0.75;;;16.40;81.50;;;;;;4206397;28;20051;-45
2021/05/16 09:06:39;;;;;;;0.30;0.30;;;16.40;81.60;;;;;;4207156;28;20391;-46
2021/05/16 09:09:27;;;;;;;0.47;0.47;;;16.30;81.70;;;;;;4199650;28;20074;-46
2021/05/16 09:12:00;;;;;;;0.20;0.20;;;16.40;81.80;;;;;;4207229;28;20571;-45
2021/05/16 09:14:42;;;;;;;2.00;1.90;;;16.40;81.80;;;;;;4207137;28;20044;-45
2021/05/16 09:17:20;;;;;;;0.35;0.35;;;16.40;81.80;;;;;;4206767;28;20139;-45
2021/05/16 09:19:42;;;;;;;1.75;1.55;;;16.40;81.80;;;;;;4190713;28;20055;-47
2021/05/16 09:22:07;;;;;;;0.20;0.20;;;16.40;81.80;;;;;;4191068;28;20049;-47
2021/05/16 09:24:30;;;;;;;2.38;2.03;;;16.40;81.80;;;;;;4191416;28;20044;-44
2021/05/16 09:26:55;;;;;;;0.13;0.13;;;16.40;81.80;;;;;;4196244;28;20059;-44
2021/05/16 09:29:18;;;;;;;0.38;0.38;;;16.40;81.80;;;;;;4206077;28;20052;-44
2021/05/16 09:31:39;;;;;;;0.43;0.43;;;16.40;81.80;;;;;;4208256;28;20080;-50
2021/05/16 09:34:02;;;;;;;0.63;0.45;;;16.40;81.90;;;;;;4193239;28;20053;-45
2021/05/16 09:36:33;;;;;;;0.20;0.20;;;16.40;82.00;;;;;;4180262;28;20060;-46
2021/05/16 09:39:11;;;;;;;0.57;0.57;;;16.30;82.00;;;;;;4193479;28;20491;-48
2021/05/16 09:41:33;;;;;;;0.10;0.10;;;16.30;82.00;;;;;;4196829;28;20118;-48
2021/05/16 09:43:55;;;;;;;0.63;0.63;;;16.30;82.00;;;;;;4201201;28;20075;-47
2021/05/16 09:46:16;;;;;;;0.35;0.35;;;16.30;82.10;;;;;;4189290;28;20128;-45
2021/05/16 09:48:41;;;;;;;0.22;0.22;;;16.30;82.10;;;;;;4181964;28;20045;-45
2021/05/16 09:51:12;;;;;;;0.00;0.00;;;16.30;82.20;;;;;;4193594;28;20132;-45
2021/05/16 09:53:34;;;;;;;0.20;0.20;;;16.30;82.30;;;;;;4193579;28;20049;-45
2021/05/16 09:56:12;;;;;;;;;;;16.30;82.30;;;;;;4196501;28;20055;-45
2021/05/16 09:58:35;;;;;;;0.20;0.20;;;16.30;82.30;;;;;;4202999;28;19963;-44
2021/05/16 10:00:59;;;;;;;0.43;0.43;;;16.30;82.30;;;;;;4210599;28;20482;-44
2021/05/16 10:03:20;;;;;;;0.10;0.10;;;16.30;82.40;;;;;;4198286;28;20071;-47
2021/05/16 10:05:42;;;;;;;0.00;0.00;;;16.30;82.40;;;;;;4197055;28;20044;-45
2021/05/16 10:08:05;;;;;;;0.00;0.00;;;16.30;82.40;;;;;;4200527;28;20051;-45
2021/05/16 10:10:31;;;;;;;0.38;0.38;;;16.30;82.50;;;;;;4193139;28;20055;-47
2021/05/16 10:12:52;;;;;;;0.70;0.70;;;16.30;82.30;;;;;;4201379;28;20126;-47
2021/05/16 10:15:20;;;;;;;7.00;0.88;;;16.40;82.30;;;;;;4197729;28;20048;-46
2021/05/16 10:17:49;;;;;;;2.65;2.03;;;16.40;82.20;;;;;;4199285;28;20048;-45
2021/05/16 10:20:15;;;;;;;0.00;0.00;;;16.40;82.20;;;;;;4193106;28;20499;-47
2021/05/16 10:22:39;;;;;;;0.00;0.00;;;16.40;82.10;;;;;;4194753;28;20700;-46
2021/05/16 10:25:00;;;;;;;1.20;1.10;;;16.40;82.20;;;;;;4210238;28;20051;-48
2021/05/16 10:27:23;;;;;;;;;;;16.40;82.30;;;;;;4192085;28;20075;-48
2021/05/16 10:29:51;;;;;;;1.15;1.15;;;16.40;82.40;;;;;;4178994;28;19971;-51
2021/05/16 10:32:26;;;;;;;0.65;0.43;;;16.40;83.40;;;;;;4192179;28;20056;-49
2021/05/16 10:34:54;;;;;;;0.10;0.10;;;16.40;82.40;;;;;;4186953;28;20052;-47
2021/05/16 10:37:53;;;;;;;3.85;1.55;;;16.50;82.40;;;;;;4183372;28;20052;-52
2021/05/16 10:40:29;;;;;;;0.00;0.00;;;16.40;82.40;;;;;;4205635;28;20040;-51
2021/05/16 10:42:53;;;;;;;0.15;0.15;;;16.50;82.40;;;;;;4209891;28;20060;-50
2021/05/16 10:45:17;;;;;;;0.00;0.00;;;16.50;82.30;;;;;;4194627;28;20187;-48
2021/05/16 10:47:49;;;;;;;0.98;0.90;;;16.50;82.20;;;;;;4199897;28;20116;-51
2021/05/16 10:50:11;;;;;;;19.33;1.45;;;16.60;82.10;;;;;;4197853;28;20055;-51
2021/05/16 10:52:33;;;;;;;0.00;0.00;;;16.60;82.00;;;;;;4204331;28;20041;-48
2021/05/16 10:54:55;;;;;;;0.00;0.00;;;16.60;81.90;;;;;;4176448;28;20416;-50
2021/05/16 10:57:18;;;;;;;;;;;16.60;81.90;;;;;;4177554;28;20107;-47
2021/05/16 10:59:40;;;;;;;0.00;0.00;;;16.60;82.00;;;;;;4177365;28;19959;-52
2021/05/16 11:02:01;;;;;;;1.25;0.75;;;16.60;81.90;;;;;;4176587;28;20075;-50
2021/05/16 11:04:45;;;;;;;0.65;0.65;;;16.70;81.90;;;;;;4185221;28;20048;-47
2021/05/16 11:07:08;;;;;;;0.00;0.00;;;16.60;81.70;;;;;;4190399;28;20046;-48
2021/05/16 11:09:36;;;;;;;0.10;0.10;;;16.70;81.80;;;;;;4177739;28;20653;-46
2021/05/16 11:11:59;;;;;;;0.00;0.00;;;16.70;81.70;;;;;;4182526;28;20057;-49
2021/05/16 11:14:27;;;;;;;0.20;0.20;;;16.60;81.50;;;;;;4179835;28;20044;-48
2021/05/16 11:16:51;;;;;;;0.75;0.75;;;16.70;81.60;;;;;;4204148;28;20094;-47
2021/05/16 11:19:12;;;;;;;0.98;0.98;;;16.60;81.50;;;;;;4192272;28;20763;-50
2021/05/16 11:21:38;;;;;;;1.55;1.10;;;16.60;81.50;;;;;;4192490;28;20045;-50
2021/05/16 11:24:00;;;;;;;10.80;0.95;;;16.60;81.50;;;;;;4200532;28;20517;-46
2021/05/16 11:26:23;;;;;;;0.40;0.40;;;16.60;81.50;;;;;;4192106;28;20502;-45
2021/05/16 11:28:52;;;;;;;3.45;1.88;;;16.60;81.50;;;;;;4191788;28;20806;-48
2021/05/16 11:31:17;;;;;;;0.20;0.20;;;16.60;81.50;;;;;;4197929;28;20043;-47
2021/05/16 11:33:40;;;;;;;5.53;0.73;;;16.60;81.50;;;;;;4200360;28;20560;-48
2021/05/16 11:36:05;;;;;;;0.10;0.10;;;16.60;81.40;;;;;;4197818;28;20049;-46
2021/05/16 11:38:29;;;;;;;0.22;0.22;;;16.60;81.40;;;;;;4208851;28;20055;-45
2021/05/16 11:40:51;;;;;;;0.55;0.55;;;16.60;81.40;;;;;;4209160;28;20499;-47
2021/05/16 11:43:13;;;;;;;0.00;0.00;;;16.60;81.40;;;;;;4209140;28;20573;-48
2021/05/16 11:45:37;;;;;;;0.10;0.10;;;16.70;81.50;;;;;;4209234;28;20059;-49
2021/05/16 11:47:59;;;;;;;0.00;0.00;;;16.60;81.30;;;;;;4204407;28;20047;-47
2021/05/16 11:50:21;;;;;;;0.00;0.00;;;16.70;81.40;;;;;;4196338;28;20056;-46
2021/05/16 11:52:42;;;;;;;0.20;0.20;;;16.70;81.20;;;;;;4201043;28;20072;-45
2021/05/16 11:55:07;;;;;;;0.00;0.00;;;16.70;81.10;;;;;;4207814;28;20062;-46
2021/05/16 11:57:29;;;;;;;0.90;0.90;;;16.80;81.10;;;;;;4208345;28;20051;-46
2021/05/16 11:59:51;;;;;;;0.10;0.10;;;16.70;80.90;;;;;;4208349;28;20075;-46
2021/05/16 12:02:12;;;;;;;;;;;16.70;80.80;;;;;;4208023;28;20044;-46
2021/05/16 12:04:38;;;;;;;0.10;0.10;;;16.80;80.90;;;;;;4192184;28;20379;-48
2021/05/16 12:07:00;;;;;;;0.03;0.03;;;16.70;81.00;;;;;;4205489;28;20055;-48
2021/05/16 12:09:21;;;;;;;;;;;16.70;81.20;;;;;;4180353;28;20505;-50
2021/05/16 12:11:46;;;;;;;0.08;0.08;;;16.70;81.30;;;;;;4199250;28;19924;-47
2021/05/16 12:14:11;;;;;;;0.00;0.00;;;16.70;81.30;;;;;;4194535;28;20414;-48
2021/05/16 12:16:34;;;;;;;2.65;1.55;;;16.70;81.30;;;;;;4191323;28;20392;-46
2021/05/16 12:18:55;;;;;;;0.15;0.15;;;16.70;81.30;;;;;;4207577;28;20048;-49
2021/05/16 12:21:18;;;;;;;0.28;0.28;;;16.70;81.20;;;;;;4208307;28;20071;-46
2021/05/16 12:23:48;;;;;;;0.45;0.45;;;16.80;81.20;;;;;;4201768;28;20078;-46
2021/05/16 12:26:10;;;;;;;0.00;0.00;;;16.80;81.00;;;;;;4192139;28;20056;-45
2021/05/16 12:28:35;;;;;;;0.00;0.00;;;16.80;80.80;;;;;;4204446;28;20051;-45
2021/05/16 12:30:58;;;;;;;1.17;1.05;;;16.90;80.50;;;;;;4191355;28;20496;-45
2021/05/16 12:33:20;;;;;;;0.03;0.03;;;16.90;80.20;;;;;;4191647;28;20457;-45